Time;durP1;ratioP1;P1;durP2;ratioP2;P2;SDS_P1;SDS_P2;PMS_P1;PMS_P2;Temp;Humidity;BMP_temperature;BMP_pressure;BME280_temperature;BME280_humidity;BME280_pressure;Samples;Min_cycle;Max_cycle;Signal;HPM_P1;HPM_P2
2022/10/31 00:01:44;;;;;;;70.27;18.93;;;9.90;99.90;;;;;;4992627;28;20916;-79
2022/10/31 00:04:12;;;;;;;76.90;19.13;;;9.90;99.90;;;;;;4982942;28;20221;-79
2022/10/31 00:06:39;;;;;;;28.40;16.63;;;9.80;99.90;;;;;;4992319;28;20233;-79
2022/10/31 00:09:06;;;;;;;34.03;15.00;;;9.80;99.90;;;;;;4986753;28;20225;-79
2022/10/31 00:11:32;;;;;;;33.87;16.67;;;9.80;99.90;;;;;;4986546;28;20320;-79
2022/10/31 00:14:00;;;;;;;29.10;15.70;;;9.80;99.90;;;;;;4988291;28;20228;-79
2022/10/31 00:16:27;;;;;;;36.83;17.63;;;9.80;99.90;;;;;;4985340;28;20228;-79
2022/10/31 00:18:56;;;;;;;32.80;17.17;;;9.70;99.90;;;;;;4982929;28;20245;-79
2022/10/31 00:21:26;;;;;;;22.27;14.90;;;9.70;99.90;;;;;;4983171;28;20221;-79
2022/10/31 00:23:52;;;;;;;25.27;15.17;;;9.70;99.90;;;;;;4981681;28;20245;-80
2022/10/31 00:26:20;;;;;;;27.93;15.20;;;9.70;99.90;;;;;;4984431;28;20217;-79
2022/10/31 00:28:48;;;;;;;115.60;20.57;;;9.60;99.90;;;;;;4989585;28;20274;-79
2022/10/31 00:31:15;;;;;;;24.00;15.57;;;9.60;99.90;;;;;;4986390;28;20240;-79
2022/10/31 00:33:42;;;;;;;25.10;14.83;;;9.60;99.90;;;;;;4980808;28;20637;-80
2022/10/31 00:36:12;;;;;;;25.30;15.83;;;9.60;99.90;;;;;;4983683;28;20719;-79
2022/10/31 00:38:41;;;;;;;21.73;15.20;;;9.60;99.90;;;;;;4997106;28;20260;-79
2022/10/31 00:41:08;;;;;;;22.03;15.57;;;9.50;99.90;;;;;;4997478;28;21218;-79
2022/10/31 00:43:35;;;;;;;23.97;15.13;;;9.50;99.90;;;;;;5000544;28;20227;-79
2022/10/31 00:46:02;;;;;;;23.53;15.60;;;9.50;99.90;;;;;;4990992;28;20229;-79
2022/10/31 00:48:29;;;;;;;45.97;24.13;;;9.50;99.90;;;;;;4987044;28;20245;-80
2022/10/31 00:50:56;;;;;;;30.97;19.40;;;9.50;99.90;;;;;;5006605;28;20221;-80
2022/10/31 00:53:23;;;;;;;27.27;18.37;;;9.50;99.90;;;;;;4985573;28;20292;-81
2022/10/31 00:55:51;;;;;;;29.43;19.03;;;9.50;99.90;;;;;;4999508;28;20230;-79
2022/10/31 00:58:18;;;;;;;23.77;15.80;;;9.50;99.90;;;;;;4985049;28;20613;-80
2022/10/31 01:00:45;;;;;;;25.83;16.47;;;9.50;99.90;;;;;;5002773;28;20236;-80
2022/10/31 01:03:12;;;;;;;22.30;15.70;;;9.60;99.90;;;;;;4999331;28;20229;-80
2022/10/31 01:05:41;;;;;;;20.53;15.30;;;9.50;99.90;;;;;;5004395;28;20225;-79
2022/10/31 01:08:09;;;;;;;20.43;14.00;;;9.60;99.90;;;;;;4999789;28;20718;-79
2022/10/31 01:10:35;;;;;;;18.40;13.33;;;9.60;99.90;;;;;;4993765;28;20894;-79
2022/10/31 01:13:03;;;;;;;19.57;13.43;;;9.60;99.90;;;;;;4980580;28;20241;-79
2022/10/31 01:15:30;;;;;;;18.63;13.67;;;9.60;99.90;;;;;;4997409;28;20233;-79
2022/10/31 01:17:57;;;;;;;22.33;15.10;;;9.60;99.90;;;;;;4995099;28;20216;-79
2022/10/31 01:20:23;;;;;;;24.60;16.27;;;9.60;99.90;;;;;;4998524;28;20229;-79
2022/10/31 01:22:50;;;;;;;18.73;13.37;;;9.60;99.90;;;;;;4981500;28;20259;-80
2022/10/31 01:25:17;;;;;;;19.93;15.10;;;9.50;99.90;;;;;;4980127;28;20275;-79
2022/10/31 01:27:44;;;;;;;20.90;13.97;;;9.50;99.90;;;;;;5000582;28;20283;-79
2022/10/31 01:30:13;;;;;;;20.23;14.47;;;9.50;99.90;;;;;;4985023;28;20225;-80
2022/10/31 01:32:40;;;;;;;23.17;14.63;;;9.50;99.90;;;;;;4986636;28;20474;-79
2022/10/31 01:35:07;;;;;;;20.77;13.97;;;9.50;99.90;;;;;;4976344;28;20233;-78
2022/10/31 01:37:33;;;;;;;21.57;14.57;;;9.50;99.90;;;;;;5005341;28;20316;-80
2022/10/31 01:40:00;;;;;;;23.30;14.53;;;9.50;99.90;;;;;;5000144;28;20226;-79
2022/10/31 01:42:27;;;;;;;19.73;15.20;;;9.50;99.90;;;;;;4983585;28;20698;-80
2022/10/31 01:45:00;;;;;;;21.90;15.93;;;9.50;99.90;;;;;;4998685;28;20221;-79
2022/10/31 01:47:38;;;;;;;22.37;15.97;;;9.50;99.90;;;;;;4996910;28;20308;-79
2022/10/31 01:50:11;;;;;;;17.27;13.40;;;9.50;99.90;;;;;;4980503;28;20223;-79
2022/10/31 01:52:41;;;;;;;26.13;16.70;;;9.60;99.90;;;;;;4982227;28;20242;-79
2022/10/31 01:55:12;;;;;;;20.23;15.53;;;9.60;99.90;;;;;;5002261;28;20305;-79
2022/10/31 01:57:44;;;;;;;19.20;13.93;;;9.60;99.90;;;;;;4983959;28;20321;-79
2022/10/31 02:00:12;;;;;;;22.30;15.73;;;9.60;99.90;;;;;;4998612;28;20306;-79
2022/10/31 02:02:45;;;;;;;20.30;15.53;;;9.70;99.90;;;;;;4981107;28;20542;-79
2022/10/31 02:05:16;;;;;;;21.73;16.23;;;9.70;99.90;;;;;;4983491;28;20339;-79
2022/10/31 02:07:49;;;;;;;25.70;17.07;;;9.70;99.90;;;;;;4987060;28;20225;-79
2022/10/31 02:10:17;;;;;;;27.03;18.93;;;9.80;99.90;;;;;;4998211;28;20226;-79
2022/10/31 02:12:45;;;;;;;29.00;19.47;;;9.80;99.90;;;;;;4988157;28;20224;-80
2022/10/31 02:15:12;;;;;;;30.17;18.83;;;9.80;99.90;;;;;;4995289;28;20229;-79
2022/10/31 02:17:44;;;;;;;30.17;18.87;;;9.80;99.90;;;;;;4994122;28;20241;-79
2022/10/31 02:20:16;;;;;;;31.50;20.57;;;9.80;99.90;;;;;;4986065;28;20341;-79
2022/10/31 02:23:12;;;;;;;34.60;22.17;;;9.80;99.90;;;;;;4982614;28;20308;-79
2022/10/31 02:25:56;;;;;;;37.87;22.87;;;9.80;99.90;;;;;;4979538;28;20241;-80
2022/10/31 02:28:39;;;;;;;34.87;23.47;;;9.80;99.90;;;;;;4997434;28;20272;-79
2022/10/31 02:31:21;;;;;;;40.13;25.83;;;9.90;99.90;;;;;;4994778;28;20228;-79
2022/10/31 02:33:53;;;;;;;43.63;25.90;;;9.90;99.90;;;;;;4989563;28;20249;-79
2022/10/31 02:36:26;;;;;;;40.23;26.27;;;10.00;99.90;;;;;;4985825;28;20301;-80
2022/10/31 02:39:03;;;;;;;49.20;26.27;;;10.00;99.90;;;;;;4982753;28;20258;-79
2022/10/31 02:41:47;;;;;;;48.93;27.57;;;10.00;99.90;;;;;;4996085;28;20335;-80
2022/10/31 02:44:21;;;;;;;52.57;27.53;;;10.10;99.90;;;;;;4996352;28;20234;-80
2022/10/31 02:46:53;;;;;;;43.50;25.93;;;10.10;99.90;;;;;;4996635;28;20239;-79
2022/10/31 02:49:28;;;;;;;43.97;26.00;;;10.20;99.90;;;;;;5000773;28;20295;-79
2022/10/31 02:51:55;;;;;;;54.53;27.77;;;10.20;99.90;;;;;;5000354;28;20252;-80
2022/10/31 02:54:24;;;;;;;46.60;27.90;;;10.20;99.90;;;;;;4996701;28;20233;-80
2022/10/31 02:56:58;;;;;;;47.77;27.60;;;10.20;99.90;;;;;;5005960;28;20273;-81
2022/10/31 02:59:25;;;;;;;46.67;28.03;;;10.30;99.90;;;;;;4988758;28;20712;-81
2022/10/31 03:02:14;;;;;;;46.07;25.80;;;10.40;99.90;;;;;;4996192;28;20225;-81
2022/10/31 03:05:01;;;;;;;50.63;27.17;;;10.40;99.90;;;;;;4993130;28;20239;-82
2022/10/31 03:07:37;;;;;;;46.60;26.37;;;10.50;99.90;;;;;;5004989;28;20226;-82
2022/10/31 03:10:12;;;;;;;46.37;26.47;;;10.50;99.90;;;;;;5000676;28;20229;-82
2022/10/31 03:12:44;;;;;;;43.67;24.50;;;10.60;99.90;;;;;;4987809;28;20249;-81
2022/10/31 03:15:20;;;;;;;55.33;27.00;;;10.60;99.90;;;;;;4999823;28;20226;-81
2022/10/31 03:17:54;;;;;;;50.77;27.30;;;10.60;99.90;;;;;;5008301;28;20312;-80
2022/10/31 03:20:28;;;;;;;45.60;25.10;;;10.60;99.90;;;;;;5006764;28;20268;-82
2022/10/31 03:22:57;;;;;;;49.67;24.70;;;10.60;99.90;;;;;;4987796;28;20234;-82
2022/10/31 03:25:24;;;;;;;47.47;23.77;;;10.60;99.90;;;;;;5004336;28;20233;-82
2022/10/31 03:27:56;;;;;;;41.73;25.47;;;10.60;99.90;;;;;;5008155;28;20232;-81
2022/10/31 03:30:23;;;;;;;52.00;26.10;;;10.60;99.90;;;;;;5009248;28;20298;-81
2022/10/31 03:33:03;;;;;;;44.70;25.53;;;10.60;99.90;;;;;;5009744;28;20313;-81
2022/10/31 03:35:33;;;;;;;49.87;27.23;;;10.50;99.90;;;;;;5009894;28;20259;-81
2022/10/31 03:38:01;;;;;;;97.23;29.10;;;10.50;99.90;;;;;;4995840;28;20652;-81
2022/10/31 03:40:32;;;;;;;51.10;25.67;;;10.50;99.90;;;;;;5013115;28;20794;-81
2022/10/31 03:43:04;;;;;;;47.73;24.10;;;10.50;99.90;;;;;;5010815;28;20225;-80
2022/10/31 03:45:36;;;;;;;297.07;36.77;;;10.50;99.90;;;;;;5010423;28;20882;-81
2022/10/31 03:48:06;;;;;;;39.87;23.83;;;10.50;99.90;;;;;;5004553;28;20256;-82
2022/10/31 03:50:41;;;;;;;110.77;25.77;;;10.50;99.90;;;;;;5002671;28;20225;-81
2022/10/31 03:53:14;;;;;;;157.03;28.90;;;10.60;99.90;;;;;;5004809;28;20560;-82
2022/10/31 03:55:48;;;;;;;91.13;22.27;;;10.50;99.90;;;;;;5003658;28;20260;-81
2022/10/31 03:58:22;;;;;;;239.50;28.73;;;10.60;99.90;;;;;;5003935;28;20232;-81
2022/10/31 04:00:52;;;;;;;166.40;22.33;;;10.60;99.90;;;;;;4988778;28;20813;-81
2022/10/31 04:03:26;;;;;;;803.97;60.57;;;10.50;99.90;;;;;;5006906;28;20222;-81
2022/10/31 04:05:57;;;;;;;364.07;35.30;;;10.50;99.90;;;;;;5002459;28;20944;-83
2022/10/31 04:08:27;;;;;;;482.57;41.83;;;10.50;99.90;;;;;;5004492;28;20249;-83
2022/10/31 04:10:58;;;;;;;1008.40;81.33;;;10.50;99.90;;;;;;4986664;28;20234;-83
2022/10/31 04:13:29;;;;;;;610.83;47.93;;;10.40;99.90;;;;;;4998639;28;20238;-84
2022/10/31 04:16:04;;;;;;;736.23;54.80;;;10.40;99.90;;;;;;4995165;28;20267;-84
2022/10/31 04:18:34;;;;;;;714.07;52.60;;;10.30;99.90;;;;;;5001643;28;20237;-82
2022/10/31 04:21:02;;;;;;;1182.30;104.20;;;10.30;99.90;;;;;;4989958;28;20225;-82
2022/10/31 04:23:30;;;;;;;314.63;36.00;;;10.30;99.90;;;;;;5002137;28;20249;-83
2022/10/31 04:25:57;;;;;;;227.80;31.40;;;10.30;99.90;;;;;;5001071;28;20217;-83
2022/10/31 04:28:24;;;;;;;590.53;55.10;;;10.20;99.90;;;;;;5000410;28;20250;-83
2022/10/31 04:30:53;;;;;;;610.77;53.27;;;10.20;99.90;;;;;;5002482;28;20242;-83
2022/10/31 04:33:20;;;;;;;239.23;29.13;;;10.30;99.90;;;;;;4981659;28;20634;-83
2022/10/31 04:35:49;;;;;;;50.00;22.17;;;10.30;99.90;;;;;;5003105;28;20222;-83
2022/10/31 04:38:16;;;;;;;49.30;24.17;;;10.30;99.90;;;;;;4983016;28;20317;-83
2022/10/31 04:40:45;;;;;;;37.57;22.73;;;10.30;99.90;;;;;;5002307;28;20250;-83
2022/10/31 04:43:30;;;;;;;85.60;24.80;;;10.30;99.90;;;;;;4987052;28;20239;-82
2022/10/31 04:45:59;;;;;;;30.40;19.67;;;10.30;99.90;;;;;;4987312;28;20226;-82
2022/10/31 04:48:26;;;;;;;46.60;20.37;;;10.30;99.90;;;;;;4981619;28;20361;-83
2022/10/31 04:50:59;;;;;;;351.80;37.20;;;10.30;99.90;;;;;;4999212;28;20234;-82
2022/10/31 04:53:27;;;;;;;29.93;19.10;;;10.20;99.90;;;;;;4998427;28;20225;-82
2022/10/31 04:56:14;;;;;;;43.77;20.80;;;10.20;99.90;;;;;;4976563;28;20300;-82
2022/10/31 04:58:44;;;;;;;32.37;20.30;;;10.20;99.90;;;;;;4999060;28;20769;-83
2022/10/31 05:01:12;;;;;;;53.60;23.90;;;10.30;99.90;;;;;;4990530;28;20667;-81
2022/10/31 05:03:40;;;;;;;37.17;22.10;;;10.30;99.90;;;;;;4971103;28;20246;-82
2022/10/31 05:06:08;;;;;;;40.03;20.67;;;10.30;99.90;;;;;;4999411;28;20263;-80
2022/10/31 05:08:37;;;;;;;32.33;20.27;;;10.30;99.90;;;;;;4981212;28;20223;-80
2022/10/31 05:11:07;;;;;;;36.63;22.20;;;10.30;99.90;;;;;;5003264;28;20213;-82
2022/10/31 05:13:34;;;;;;;39.73;22.83;;;10.40;99.90;;;;;;4980768;28;20233;-81
2022/10/31 05:16:12;;;;;;;40.97;25.43;;;10.40;99.90;;;;;;4974777;28;20305;-81
2022/10/31 05:18:58;;;;;;;27.80;18.43;;;10.50;99.90;;;;;;4980449;28;20291;-82
2022/10/31 05:21:45;;;;;;;38.33;22.03;;;10.50;99.90;;;;;;4977260;28;20277;-81
2022/10/31 05:24:12;;;;;;;31.60;19.70;;;10.60;99.90;;;;;;4992483;28;20838;-81
2022/10/31 05:26:41;;;;;;;49.17;27.00;;;10.60;99.90;;;;;;4989725;28;20241;-81
2022/10/31 05:29:07;;;;;;;45.87;26.00;;;10.70;99.90;;;;;;4991894;28;20313;-81
2022/10/31 05:31:34;;;;;;;46.37;24.63;;;10.70;99.90;;;;;;4996241;28;20229;-81
2022/10/31 05:34:02;;;;;;;54.30;26.70;;;10.70;99.90;;;;;;4968841;28;20246;-81
2022/10/31 05:36:49;;;;;;;53.60;25.60;;;10.80;99.90;;;;;;4978268;28;20237;-81
2022/10/31 05:39:17;;;;;;;52.60;27.97;;;10.90;99.90;;;;;;4984502;28;20588;-81
2022/10/31 05:41:50;;;;;;;53.30;27.87;;;10.90;99.90;;;;;;4995655;28;20560;-81
2022/10/31 05:44:21;;;;;;;51.57;28.77;;;11.00;99.90;;;;;;4988691;28;20425;-82
2022/10/31 05:47:06;;;;;;;55.80;28.20;;;11.00;99.90;;;;;;4987740;28;20210;-81
2022/10/31 05:49:52;;;;;;;64.83;29.63;;;11.10;99.90;;;;;;4978712;28;20230;-82
2022/10/31 05:52:57;;;;;;;49.13;26.67;;;11.20;99.90;;;;;;4961197;28;20233;-81
2022/10/31 05:55:32;;;;;;;55.33;29.47;;;11.20;99.90;;;;;;4993276;28;20237;-81
2022/10/31 05:58:04;;;;;;;62.33;28.53;;;11.30;99.90;;;;;;4992586;28;20233;-81
2022/10/31 06:00:34;;;;;;;52.23;26.97;;;11.30;99.90;;;;;;4992386;28;20273;-81
2022/10/31 06:03:08;;;;;;;61.03;29.13;;;11.40;99.90;;;;;;4990568;28;20231;-82
2022/10/31 06:05:42;;;;;;;49.63;29.23;;;11.40;99.90;;;;;;4976446;28;20233;-81
2022/10/31 06:08:10;;;;;;;42.87;25.97;;;11.50;99.90;;;;;;5000675;28;20215;-80
2022/10/31 06:10:39;;;;;;;52.43;26.73;;;11.50;99.90;;;;;;4996826;28;20225;-81
2022/10/31 06:13:06;;;;;;;49.33;27.53;;;11.50;99.90;;;;;;4984296;28;20226;-81
2022/10/31 06:15:59;;;;;;;52.27;27.73;;;11.50;99.90;;;;;;4992900;28;20572;-81
2022/10/31 06:18:33;;;;;;;53.47;26.53;;;11.60;99.90;;;;;;4998047;28;20240;-82
2022/10/31 06:21:00;;;;;;;50.90;28.97;;;11.60;99.90;;;;;;4996360;28;20298;-82
2022/10/31 06:23:28;;;;;;;60.47;29.97;;;11.60;99.90;;;;;;4979872;28;20223;-82
2022/10/31 06:26:15;;;;;;;59.07;28.17;;;11.60;99.90;;;;;;4977521;28;20229;-82
2022/10/31 06:28:42;;;;;;;60.00;28.23;;;11.70;99.90;;;;;;4995310;28;20325;-82
2022/10/31 06:31:28;;;;;;;56.20;28.60;;;11.70;99.90;;;;;;4976230;28;20337;-82
2022/10/31 06:33:56;;;;;;;53.17;29.23;;;11.70;99.90;;;;;;5005952;28;20900;-82
2022/10/31 06:36:23;;;;;;;62.37;30.33;;;11.70;99.90;;;;;;4993012;28;20234;-82
2022/10/31 06:38:51;;;;;;;66.57;29.07;;;11.70;99.90;;;;;;4995122;28;20246;-82
2022/10/31 06:41:21;;;;;;;58.60;28.17;;;11.80;99.90;;;;;;4986610;28;20302;-81
2022/10/31 06:43:49;;;;;;;64.27;28.97;;;11.80;99.90;;;;;;4986530;28;20242;-80
2022/10/31 06:46:34;;;;;;;79.80;28.33;;;11.80;99.90;;;;;;4997995;28;20227;-80
2022/10/31 06:49:13;;;;;;;67.13;29.63;;;11.80;99.90;;;;;;4984575;28;20789;-81
2022/10/31 06:51:50;;;;;;;55.50;27.80;;;11.90;99.90;;;;;;4980664;28;20312;-81
2022/10/31 06:54:19;;;;;;;66.33;29.83;;;11.90;99.90;;;;;;5000754;28;20342;-80
2022/10/31 06:56:47;;;;;;;59.60;26.27;;;12.00;99.90;;;;;;5005524;28;20271;-81
2022/10/31 06:59:14;;;;;;;60.60;26.77;;;12.00;99.90;;;;;;4999561;28;20223;-81
2022/10/31 07:02:00;;;;;;;52.60;24.77;;;12.00;99.90;;;;;;4988673;28;20287;-81
2022/10/31 07:04:27;;;;;;;67.03;25.33;;;12.10;99.90;;;;;;4995778;28;20581;-80
2022/10/31 07:06:53;;;;;;;59.57;26.30;;;12.10;99.90;;;;;;4997050;28;20586;-81
2022/10/31 07:09:22;;;;;;;63.50;26.70;;;12.10;99.90;;;;;;4997480;28;20243;-81
2022/10/31 07:11:49;;;;;;;58.53;24.80;;;12.10;99.90;;;;;;4991144;28;20677;-80
2022/10/31 07:14:15;;;;;;;67.27;27.53;;;12.20;99.90;;;;;;4996574;28;20221;-81
2022/10/31 07:16:42;;;;;;;68.03;26.87;;;12.20;99.90;;;;;;5004465;28;20614;-80
2022/10/31 07:19:13;;;;;;;78.33;28.23;;;12.20;99.90;;;;;;4984268;28;20281;-80
2022/10/31 07:21:40;;;;;;;72.87;26.73;;;12.30;99.90;;;;;;5000252;28;20222;-81
2022/10/31 07:24:07;;;;;;;47.67;23.20;;;12.30;99.90;;;;;;4998804;28;20232;-81
2022/10/31 07:26:47;;;;;;;53.93;23.77;;;12.30;99.90;;;;;;4981877;28;20676;-81
2022/10/31 07:29:14;;;;;;;46.13;21.97;;;12.40;99.90;;;;;;4982808;28;20224;-83
2022/10/31 07:31:46;;;;;;;52.50;22.63;;;12.40;99.90;;;;;;4990326;28;20230;-81
2022/10/31 07:34:19;;;;;;;50.00;22.83;;;12.40;99.90;;;;;;5000873;28;20224;-80
2022/10/31 07:37:04;;;;;;;59.37;24.03;;;12.40;99.90;;;;;;4983395;28;20228;-80
2022/10/31 07:39:31;;;;;;;52.23;22.80;;;12.40;99.90;;;;;;5000941;28;20236;-81
2022/10/31 07:42:00;;;;;;;52.77;22.70;;;12.50;99.90;;;;;;4986316;28;20819;-83
2022/10/31 07:44:27;;;;;;;44.13;23.33;;;12.40;99.90;;;;;;5000302;28;20227;-82
2022/10/31 07:47:29;;;;;;;45.00;21.53;;;12.50;99.90;;;;;;4991970;28;20227;-82
2022/10/31 07:50:09;;;;;;;46.07;22.87;;;12.50;99.90;;;;;;4982194;28;20247;-82
2022/10/31 07:53:00;;;;;;;49.30;22.63;;;12.50;99.90;;;;;;4989651;28;20234;-80
2022/10/31 07:55:45;;;;;;;47.73;22.53;;;12.50;99.90;;;;;;4988557;28;20352;-81
2022/10/31 07:58:17;;;;;;;60.23;23.47;;;12.50;99.90;;;;;;5004311;28;20246;-81
2022/10/31 08:00:45;;;;;;;44.73;21.33;;;12.60;99.90;;;;;;4984847;28;20303;-81
2022/10/31 08:03:17;;;;;;;44.10;21.47;;;12.60;99.90;;;;;;4977453;28;20903;-80
2022/10/31 08:06:13;;;;;;;44.23;22.33;;;12.60;99.90;;;;;;4985868;28;20586;-80
2022/10/31 08:09:11;;;;;;;44.63;21.43;;;12.70;99.90;;;;;;4986329;28;20218;-78
2022/10/31 08:11:39;;;;;;;39.30;20.23;;;12.70;99.90;;;;;;4996489;28;20284;-80
2022/10/31 08:14:09;;;;;;;41.20;20.60;;;12.70;99.90;;;;;;4991243;28;20250;-79
2022/10/31 08:16:35;;;;;;;36.33;20.23;;;12.80;99.90;;;;;;5002285;28;20219;-79
2022/10/31 08:19:04;;;;;;;37.40;20.70;;;12.80;99.90;;;;;;4983320;28;20224;-79
2022/10/31 08:21:37;;;;;;;38.27;20.80;;;12.80;99.90;;;;;;4980602;28;20224;-79
2022/10/31 08:24:04;;;;;;;39.60;21.13;;;12.90;99.90;;;;;;4997744;28;20235;-80
2022/10/31 08:26:32;;;;;;;45.33;24.00;;;12.90;99.90;;;;;;4997405;28;20306;-79
2022/10/31 08:28:59;;;;;;;39.10;21.97;;;13.00;99.90;;;;;;4981354;28;21610;-79
2022/10/31 08:31:30;;;;;;;39.40;21.07;;;13.00;99.90;;;;;;5004674;28;20951;-79
2022/10/31 08:34:28;;;;;;;35.77;20.47;;;13.10;99.90;;;;;;4980038;28;20845;-81
2022/10/31 08:37:24;;;;;;;37.13;20.23;;;13.10;99.90;;;;;;4969835;28;20247;-79
2022/10/31 08:39:54;;;;;;;36.93;19.77;;;13.10;99.90;;;;;;4997830;28;20279;-78
2022/10/31 08:42:21;;;;;;;30.67;17.97;;;13.10;99.90;;;;;;4993651;28;20232;-79
2022/10/31 08:44:48;;;;;;;33.13;19.63;;;13.10;99.90;;;;;;4987742;28;20241;-79
2022/10/31 08:47:16;;;;;;;37.80;20.60;;;13.10;99.90;;;;;;4992623;28;20292;-79
2022/10/31 08:49:43;;;;;;;36.33;20.03;;;13.10;99.90;;;;;;4995410;28;20721;-79
2022/10/31 08:52:10;;;;;;;34.27;18.13;;;13.10;99.90;;;;;;4997241;28;20239;-79
2022/10/31 08:54:39;;;;;;;34.27;20.50;;;13.10;99.90;;;;;;4977466;28;20241;-79
2022/10/31 08:57:32;;;;;;;33.90;18.47;;;13.10;99.90;;;;;;4982324;28;20232;-79
2022/10/31 08:59:59;;;;;;;33.73;19.63;;;13.20;99.90;;;;;;4996179;28;20236;-79
2022/10/31 09:02:38;;;;;;;68.93;34.63;;;13.20;99.90;;;;;;4985416;28;20229;-79
2022/10/31 09:05:05;;;;;;;34.67;19.73;;;13.20;99.90;;;;;;4995499;28;20231;-79
2022/10/31 09:07:32;;;;;;;32.47;19.40;;;13.20;99.90;;;;;;5000747;28;20224;-79
2022/10/31 09:09:59;;;;;;;38.83;19.27;;;13.20;99.90;;;;;;4981790;28;20229;-79
2022/10/31 09:12:26;;;;;;;32.67;18.47;;;13.20;99.90;;;;;;4973346;28;20233;-79
2022/10/31 09:15:13;;;;;;;33.07;18.70;;;13.20;99.90;;;;;;4976704;28;20775;-79
2022/10/31 09:17:50;;;;;;;32.57;17.27;;;13.20;99.90;;;;;;4985074;28;20261;-79
2022/10/31 09:20:42;;;;;;;32.07;18.40;;;13.20;99.90;;;;;;4980133;28;20668;-78
2022/10/31 09:23:12;;;;;;;31.77;17.30;;;13.30;99.90;;;;;;4979749;28;20492;-79
2022/10/31 09:25:39;;;;;;;28.40;15.83;;;13.30;99.90;;;;;;4988007;28;20314;-78
2022/10/31 09:28:34;;;;;;;31.40;16.80;;;13.30;99.90;;;;;;4986185;28;20279;-78
2022/10/31 09:31:06;;;;;;;29.17;16.73;;;13.40;99.90;;;;;;4997386;28;20754;-78
2022/10/31 09:33:53;;;;;;;31.30;16.23;;;13.40;99.90;;;;;;4975430;28;20295;-78
2022/10/31 09:36:45;;;;;;;24.90;14.93;;;13.50;99.90;;;;;;4992558;28;20988;-81
2022/10/31 09:39:20;;;;;;;33.73;18.30;;;13.60;99.90;;;;;;4983996;28;20329;-79
2022/10/31 09:42:07;;;;;;;27.77;16.60;;;13.80;99.90;;;;;;4995879;28;21046;-79
2022/10/31 09:44:46;;;;;;;34.40;17.73;;;13.90;99.90;;;;;;4994318;28;20235;-78
2022/10/31 09:47:32;;;;;;;29.57;16.63;;;14.00;99.90;;;;;;4979896;28;20291;-78
2022/10/31 09:50:39;;;;;;;23.40;13.47;;;14.20;99.90;;;;;;4984844;28;20315;-79
2022/10/31 09:53:30;;;;;;;26.67;14.50;;;14.30;99.90;;;;;;4979832;28;20239;-78
2022/10/31 09:55:58;;;;;;;22.63;14.13;;;14.40;99.90;;;;;;4977234;28;20339;-79
2022/10/31 09:58:27;;;;;;;20.23;12.47;;;14.60;99.90;;;;;;4983689;28;20237;-79
2022/10/31 10:00:59;;;;;;;19.57;13.47;;;14.60;99.90;;;;;;4993416;28;20217;-79
2022/10/31 10:03:35;;;;;;;29.70;16.73;;;14.70;99.90;;;;;;4992890;28;20246;-79
2022/10/31 10:06:17;;;;;;;23.57;13.27;;;14.70;99.90;;;;;;4998876;28;20319;-79
2022/10/31 10:09:08;;;;;;;20.40;12.20;;;14.80;99.90;;;;;;4983787;28;20288;-78
2022/10/31 10:12:14;;;;;;;20.73;12.47;;;14.90;99.90;;;;;;5000226;28;20363;-79
2022/10/31 10:14:56;;;;;;;22.07;13.90;;;14.90;99.90;;;;;;5002568;28;20303;-79
2022/10/31 10:17:36;;;;;;;135.90;37.40;;;14.90;99.90;;;;;;4986333;28;20229;-78
2022/10/31 10:20:30;;;;;;;57.13;22.37;;;15.00;99.90;;;;;;5010099;28;20229;-79
2022/10/31 10:23:24;;;;;;;29.00;14.67;;;15.00;99.90;;;;;;4986461;28;20636;-79
2022/10/31 10:25:59;;;;;;;25.83;14.87;;;15.00;99.90;;;;;;4982623;28;20447;-79
2022/10/31 10:28:31;;;;;;;18.40;11.87;;;15.10;99.90;;;;;;4994878;28;20309;-80
2022/10/31 10:31:04;;;;;;;19.27;12.10;;;15.10;99.90;;;;;;4992947;28;20227;-78
2022/10/31 10:33:36;;;;;;;19.33;12.17;;;15.20;99.90;;;;;;5005317;28;20237;-79
2022/10/31 10:36:07;;;;;;;20.20;11.80;;;15.20;99.90;;;;;;4987458;28;20231;-79
2022/10/31 10:38:39;;;;;;;18.63;12.63;;;15.30;99.90;;;;;;4998645;28;20602;-79
2022/10/31 10:41:12;;;;;;;19.30;10.67;;;15.30;99.90;;;;;;4990899;28;20227;-78
2022/10/31 10:43:39;;;;;;;20.93;11.77;;;15.40;99.90;;;;;;5005794;28;20648;-81
2022/10/31 10:49:17;;;;;;;15.30;9.97;;;15.90;99.90;;;;;;4986631;28;20225;-80
2022/10/31 10:51:47;;;;;;;21.80;14.43;;;16.20;99.90;;;;;;4995016;28;20229;-79
2022/10/31 10:54:45;;;;;;;15.67;10.93;;;16.50;99.90;;;;;;4985175;28;20229;-79
2022/10/31 10:57:32;;;;;;;15.73;10.60;;;16.70;99.90;;;;;;4985148;28;20226;-79
2022/10/31 11:00:01;;;;;;;12.93;9.23;;;17.00;99.90;;;;;;4985312;28;20238;-79
2022/10/31 11:02:32;;;;;;;17.97;11.60;;;17.20;99.90;;;;;;4978227;28;20231;-79
2022/10/31 11:05:01;;;;;;;14.67;10.30;;;17.30;99.90;;;;;;4988970;28;20236;-79
2022/10/31 11:07:38;;;;;;;15.97;10.47;;;17.40;99.90;;;;;;4986222;28;20646;-79
2022/10/31 11:10:14;;;;;;;17.87;10.10;;;17.60;99.90;;;;;;4987667;28;20232;-79
2022/10/31 11:12:42;;;;;;;17.10;10.20;;;17.60;99.90;;;;;;4984364;28;20771;-80
2022/10/31 11:15:22;;;;;;;16.97;10.47;;;17.80;99.90;;;;;;4988649;28;20423;-79
2022/10/31 11:17:51;;;;;;;14.93;9.57;;;17.80;99.90;;;;;;4977814;28;20235;-79
2022/10/31 11:20:31;;;;;;;15.53;9.40;;;17.90;99.90;;;;;;4991196;28;20603;-81
2022/10/31 11:23:04;;;;;;;14.40;9.83;;;18.10;99.90;;;;;;4987152;28;20319;-80
2022/10/31 11:25:33;;;;;;;15.37;8.70;;;18.30;99.90;;;;;;4979669;28;20226;-79
2022/10/31 11:28:00;;;;;;;12.67;8.83;;;18.40;99.90;;;;;;4978837;28;20232;-80
2022/10/31 11:30:27;;;;;;;13.50;8.97;;;18.50;99.90;;;;;;4981830;28;20229;-80
2022/10/31 11:32:54;;;;;;;13.10;9.40;;;18.60;99.90;;;;;;4980877;28;20232;-80
2022/10/31 11:35:24;;;;;;;11.90;8.60;;;18.60;99.90;;;;;;5003745;28;20228;-80
2022/10/31 11:37:53;;;;;;;12.07;8.97;;;18.60;99.90;;;;;;5001679;28;20228;-80
2022/10/31 11:40:21;;;;;;;11.93;8.50;;;18.40;99.90;;;;;;4979428;28;20766;-80
2022/10/31 11:42:51;;;;;;;13.50;8.40;;;18.20;99.90;;;;;;4976978;28;20312;-80
2022/10/31 11:45:28;;;;;;;12.00;8.93;;;18.00;99.90;;;;;;4995439;28;20230;-80
2022/10/31 11:47:56;;;;;;;12.57;9.10;;;18.00;99.90;;;;;;4981674;28;20225;-80
2022/10/31 11:50:26;;;;;;;14.70;9.27;;;17.90;99.90;;;;;;4985024;28;20455;-80
2022/10/31 11:52:54;;;;;;;15.63;9.67;;;17.80;99.90;;;;;;4977575;28;20235;-80
2022/10/31 11:55:32;;;;;;;15.03;9.97;;;17.80;99.90;;;;;;4982047;28;20832;-79
2022/10/31 11:58:00;;;;;;;16.60;9.47;;;17.70;99.90;;;;;;5000878;28;20225;-80
2022/10/31 12:00:29;;;;;;;15.13;10.10;;;17.70;99.90;;;;;;4982411;28;20796;-79
2022/10/31 12:03:11;;;;;;;14.40;10.03;;;17.70;99.90;;;;;;4983835;28;20224;-79
2022/10/31 12:05:40;;;;;;;14.73;10.03;;;17.70;99.90;;;;;;4983275;28;20243;-80
2022/10/31 12:08:08;;;;;;;13.10;9.13;;;17.70;99.90;;;;;;4997927;28;20227;-80
2022/10/31 12:10:58;;;;;;;14.97;9.43;;;17.70;99.90;;;;;;4986062;28;20236;-80
2022/10/31 12:13:38;;;;;;;15.70;9.97;;;17.70;99.90;;;;;;4986485;28;20595;-80
2022/10/31 12:16:13;;;;;;;16.93;10.30;;;17.70;99.90;;;;;;4981951;28;20220;-80
2022/10/31 12:18:53;;;;;;;13.80;10.40;;;17.70;99.90;;;;;;4995828;28;20232;-80
2022/10/31 12:21:44;;;;;;;17.63;10.97;;;17.70;99.90;;;;;;4979158;28;20345;-80
2022/10/31 12:24:27;;;;;;;15.63;10.83;;;17.70;99.90;;;;;;4972385;28;20230;-80
2022/10/31 12:27:04;;;;;;;15.80;10.70;;;17.70;99.90;;;;;;4991702;28;20272;-80
2022/10/31 12:29:50;;;;;;;17.67;12.10;;;17.60;99.90;;;;;;4988875;28;20233;-81
2022/10/31 12:32:28;;;;;;;20.80;12.97;;;17.50;99.90;;;;;;4980652;28;20309;-80
2022/10/31 12:35:11;;;;;;;20.80;14.17;;;17.30;99.90;;;;;;4982877;28;20226;-81
2022/10/31 12:37:56;;;;;;;20.23;13.10;;;17.20;99.90;;;;;;4979358;28;20851;-80
2022/10/31 12:40:43;;;;;;;20.10;13.53;;;17.20;99.90;;;;;;4980686;28;20721;-81
2022/10/31 12:43:24;;;;;;;19.47;14.50;;;17.10;99.90;;;;;;4996334;28;20244;-80
2022/10/31 12:45:55;;;;;;;23.50;14.23;;;17.20;99.90;;;;;;4985780;28;20221;-79
2022/10/31 12:48:39;;;;;;;22.23;15.43;;;17.20;99.90;;;;;;4981587;28;20653;-81
2022/10/31 12:51:16;;;;;;;20.87;14.20;;;17.20;99.90;;;;;;4980618;28;20216;-80
2022/10/31 12:53:55;;;;;;;22.43;14.53;;;17.30;99.90;;;;;;4979733;28;20243;-80
2022/10/31 12:56:38;;;;;;;23.53;15.13;;;17.30;99.90;;;;;;4995097;28;20231;-81
2022/10/31 12:59:09;;;;;;;21.73;14.80;;;17.20;99.90;;;;;;4995099;28;20496;-79
2022/10/31 13:01:41;;;;;;;22.60;15.17;;;17.20;99.90;;;;;;4995117;28;20236;-81
2022/10/31 13:04:16;;;;;;;23.87;14.97;;;17.10;99.90;;;;;;4977949;28;20233;-81